KSYR/SYR METAR and TAF weather

Enter ICAO airport designator
Station Type Date Time Source
KSYR METAR 2022/12/08 11:58 UTC NOAA

KSYR 081158Z 31006KT 5SM -RA BR FEW009 OVC016 06/04 A3028 RMK AO2 P0000 T00560044


Station Type Date Time Source
KSYR Decoded METAR 2022/12/08 11:58 UTC NOAA

SYRACUSE HANCOCK INTERNATIONAL AIRPORT , NY, United States (KSYR) 43-07N 76-06W 127M
Dec 08, 2022 - 06:58 AM EST / 2022.12.08 1158 UTC
Wind: from the NW (310 degrees) at 7 MPH (6 KT):0
Visibility: 5 mile(s):0
Sky conditions: overcast
Weather: light rain; mist
Precipitation last hour: A trace
Temperature: 42.1 F (5.6 C)
Dew Point: 39.9 F (4.4 C)
Relative Humidity: 91%
Pressure (altimeter): 30.28 in. Hg (1025 hPa)
ob: KSYR 081158Z 31006KT 5SM -RA BR FEW009 OVC016 06/04 A3028 RMK AO2 P0000 T00560044
cycle: 12

Station Type Date Time Source
KSYR TAF 2022/12/08 12:33 UTC NOAA

TAF KSYR 081130Z 0812/0912 29007KT P6SM -DZ FEW012 BKN018 OVC024
TEMPO 0812/0815 6SM -DZ BR BKN010 OVC018
FM082200 33005KT P6SM BKN040

Example: see airport list